Time;durP1;ratioP1;P1;durP2;ratioP2;P2;SDS_P1;SDS_P2;PMS_P1;PMS_P2;Temp;Humidity;BMP_temperature;BMP_pressure;BME280_temperature;BME280_humidity;BME280_pressure;Samples;Min_cycle;Max_cycle;Signal;HPM_P1;HPM_P2
2022/11/18 00:01:26;;;;;;;20.57;10.30;;;;;;;6.37;93.96;97854.02;1811583;78;21629;-80
2022/11/18 00:03:53;;;;;;;19.82;9.50;;;;;;;6.37;93.85;97850.14;1808437;78;21050;-80
2022/11/18 00:06:25;;;;;;;21.27;9.40;;;;;;;6.36;93.38;97855.73;1823327;78;21073;-78
2022/11/18 00:08:54;;;;;;;21.90;9.43;;;;;;;6.33;93.45;97854.98;1823646;77;21014;-79
2022/11/18 00:14:21;;;;;;;19.62;8.93;;;;;;;6.29;93.27;97850.35;1808447;77;21002;-79
2022/11/18 00:17:03;;;;;;;22.17;8.95;;;;;;;6.26;93.58;97847.00;1794043;78;20994;-78
2022/11/18 00:19:36;;;;;;;17.30;8.15;;;;;;;6.24;93.53;97846.20;1819330;78;21011;-79
2022/11/18 00:22:05;;;;;;;20.00;9.65;;;;;;;6.26;93.46;97845.71;1809716;78;21296;-79
2022/11/18 00:24:31;;;;;;;21.73;8.08;;;;;;;6.26;93.55;97837.52;1797139;78;20995;-78
2022/11/18 00:26:58;;;;;;;17.52;8.13;;;;;;;6.28;93.66;97847.35;1793193;78;20962;-79
2022/11/18 00:29:27;;;;;;;18.07;8.35;;;;;;;6.29;93.66;97849.52;1803528;79;21642;-79
2022/11/18 00:31:56;;;;;;;23.10;8.60;;;;;;;6.28;93.62;97851.67;1786546;79;21482;-79
2022/11/18 00:34:23;;;;;;;16.52;7.62;;;;;;;6.29;93.81;97846.94;1799318;77;21025;-79
2022/11/18 00:36:50;;;;;;;14.68;7.30;;;;;;;6.27;93.77;97840.97;1791594;78;21034;-79
2022/11/18 00:39:19;;;;;;;15.83;7.55;;;;;;;6.28;93.80;97828.45;1813564;78;21008;-79
2022/11/18 00:44:31;;;;;;;21.12;9.40;;;;;;;6.28;93.54;97821.55;1799767;78;21317;-79
2022/11/18 00:46:58;;;;;;;18.27;9.18;;;;;;;6.23;93.53;97817.39;1816566;78;21050;-79
2022/11/18 00:49:24;;;;;;;19.05;9.13;;;;;;;6.18;93.42;97813.20;1809917;77;21526;-79
2022/11/18 00:51:51;;;;;;;17.00;8.18;;;;;;;6.20;93.24;97809.75;1776382;78;20999;-80
2022/11/18 00:54:18;;;;;;;19.30;8.65;;;;;;;6.19;92.99;97815.37;1806397;78;21098;-79
2022/11/18 00:56:44;;;;;;;19.45;9.48;;;;;;;6.12;93.22;97815.96;1830451;78;21043;-79
2022/11/18 00:59:11;;;;;;;17.07;8.10;;;;;;;6.10;93.33;97815.61;1821213;78;21554;-79
2022/11/18 01:01:37;;;;;;;16.90;8.18;;;;;;;6.08;93.40;97818.23;1811144;76;20996;-80
2022/11/18 01:04:04;;;;;;;19.82;7.78;;;;;;;6.10;93.38;97804.84;1820287;78;21071;-79
2022/11/18 01:06:30;;;;;;;17.27;8.48;;;;;;;6.09;93.62;97805.74;1800770;77;20994;-79
2022/11/18 01:08:57;;;;;;;15.83;7.67;;;;;;;6.12;93.59;97803.06;1768254;78;21614;-80
2022/11/18 01:14:09;;;;;;;19.40;7.70;;;;;;;6.14;93.77;97799.98;1810238;78;21016;-79
2022/11/18 01:16:35;;;;;;;15.45;7.78;;;;;;;6.18;93.58;97797.72;1802854;78;21022;-78
2022/11/18 01:19:02;;;;;;;16.80;7.85;;;;;;;6.20;93.50;97782.66;1805624;77;21046;-77
2022/11/18 01:21:28;;;;;;;18.65;7.92;;;;;;;6.18;93.41;97789.14;1808608;78;21542;-77
2022/11/18 01:23:55;;;;;;;18.02;8.30;;;;;;;6.17;93.35;97787.47;1827797;78;20984;-79
2022/11/18 01:26:21;;;;;;;20.80;7.67;;;;;;;6.21;93.28;97779.17;1803141;78;20994;-80
2022/11/18 01:28:48;;;;;;;17.67;8.13;;;;;;;6.20;93.18;97769.30;1832879;76;21051;-80
2022/11/18 01:31:18;;;;;;;19.10;8.68;;;;;;;6.22;93.13;97762.36;1800451;78;22115;-80
2022/11/18 01:33:45;;;;;;;18.00;9.13;;;;;;;6.21;93.09;97754.66;1831282;78;20976;-78
2022/11/18 01:36:19;;;;;;;20.08;9.55;;;;;;;6.24;93.02;97755.87;1820597;78;20964;-78
2022/11/18 01:38:46;;;;;;;16.60;7.28;;;;;;;6.21;93.03;97755.52;1822061;77;20991;-77
2022/11/18 01:41:13;;;;;;;17.95;9.05;;;;;;;6.23;92.47;97757.61;1818651;78;21087;-80
2022/11/18 01:43:57;;;;;;;16.87;8.68;;;;;;;6.18;92.53;97759.02;1799036;78;20990;-79
2022/11/18 01:46:27;;;;;;;18.42;9.00;;;;;;;6.15;92.60;97761.70;1776006;78;21027;-78
2022/11/18 01:49:05;;;;;;;17.50;8.08;;;;;;;6.11;93.25;97758.81;1799298;78;21612;-77
2022/11/18 01:51:40;;;;;;;15.60;8.23;;;;;;;6.09;93.17;97756.72;1820866;78;21031;-77
2022/11/18 01:54:15;;;;;;;20.20;9.30;;;;;;;6.12;93.34;97751.91;1799957;77;20967;-79
2022/11/18 01:56:46;;;;;;;19.40;9.00;;;;;;;6.09;93.94;97748.14;1810545;78;21030;-78
2022/11/18 01:59:17;;;;;;;21.77;9.50;;;;;;;6.12;93.77;97739.00;1829446;76;21598;-78
2022/11/18 02:01:44;;;;;;;18.52;9.10;;;;;;;6.09;93.91;97727.05;1782539;78;21641;-77
2022/11/18 02:04:11;;;;;;;18.25;9.25;;;;;;;6.07;94.06;97728.83;1831745;77;20992;-80
2022/11/18 02:06:38;;;;;;;17.12;7.65;;;;;;;6.08;94.11;97718.89;1804289;78;21042;-79
2022/11/18 02:09:04;;;;;;;21.27;8.03;;;;;;;6.07;94.12;97715.92;1801871;78;21525;-79
2022/11/18 02:11:50;;;;;;;17.67;8.18;;;;;;;6.07;93.97;97705.61;1819870;77;21083;-80
2022/11/18 02:14:21;;;;;;;17.25;8.33;;;;;;;6.12;93.80;97716.62;1799554;78;20990;-76
2022/11/18 02:17:29;;;;;;;18.10;9.00;;;;;;;6.06;93.96;97706.48;1828764;77;20998;-79
2022/11/18 02:20:07;;;;;;;16.87;8.95;;;;;;;6.07;93.75;97702.16;1803359;78;21048;-78
2022/11/18 02:22:47;;;;;;;16.85;8.13;;;;;;;5.99;93.52;97703.70;1817664;78;21073;-79
2022/11/18 02:25:45;;;;;;;20.57;8.08;;;;;;;5.92;93.56;97695.69;1782463;78;21322;-80
2022/11/18 02:28:50;;;;;;;22.20;8.18;;;;;;;5.91;93.12;97700.46;1820774;77;21036;-79
2022/11/18 02:31:22;;;;;;;17.10;7.15;;;;;;;5.80;93.97;97695.59;1824150;77;21048;-79
2022/11/18 02:33:59;;;;;;;15.93;7.72;;;;;;;5.77;93.95;97700.41;1824227;77;21318;-79
2022/11/18 02:36:50;;;;;;;14.85;7.47;;;;;;;5.74;93.58;97701.76;1824760;77;21032;-79
2022/11/18 02:39:25;;;;;;;13.08;6.92;;;;;;;5.73;93.76;97691.48;1818577;77;21480;-78
2022/11/18 02:41:55;;;;;;;15.43;7.12;;;;;;;5.70;93.92;97691.58;1824149;77;21773;-77
2022/11/18 02:44:25;;;;;;;19.15;7.62;;;;;;;5.67;94.10;97682.63;1830453;76;21034;-79
2022/11/18 02:46:56;;;;;;;18.98;7.70;;;;;;;5.66;94.00;97685.66;1818070;77;21040;-80
2022/11/18 02:49:39;;;;;;;17.92;7.42;;;;;;;5.63;94.08;97680.61;1822219;77;20973;-79
2022/11/18 02:52:08;;;;;;;19.03;7.23;;;;;;;5.62;94.21;97674.20;1823329;77;20975;-80
2022/11/18 02:54:39;;;;;;;15.18;7.33;;;;;;;5.57;94.55;97667.44;1828623;77;20969;-79
2022/11/18 02:57:07;;;;;;;16.85;7.47;;;;;;;5.56;94.35;97664.44;1825366;78;20958;-79
2022/11/18 02:59:34;;;;;;;18.20;8.08;;;;;;;5.51;94.49;97679.21;1826710;77;20942;-79
2022/11/18 03:02:00;;;;;;;16.82;7.25;;;;;;;5.53;94.28;97680.44;1826491;76;21005;-79
2022/11/18 03:04:27;;;;;;;14.65;6.42;;;;;;;5.46;94.56;97690.08;1821028;78;21536;-78
2022/11/18 03:07:06;;;;;;;13.95;6.75;;;;;;;5.46;94.46;97686.66;1825167;77;21476;-78
2022/11/18 03:09:41;;;;;;;12.45;6.35;;;;;;;5.43;94.56;97696.62;1831061;77;20953;-78
2022/11/18 03:12:30;;;;;;;14.90;6.55;;;;;;;5.43;94.50;97690.17;1824523;77;20930;-77
2022/11/18 03:15:08;;;;;;;12.60;6.12;;;;;;;5.43;94.53;97695.33;1825298;77;21505;-78
2022/11/18 03:18:01;;;;;;;15.88;7.72;;;;;;;5.47;94.19;97698.65;1826535;76;20946;-77
2022/11/18 03:20:36;;;;;;;13.70;6.92;;;;;;;5.45;94.28;97697.84;1823169;77;20966;-77
2022/11/18 03:23:28;;;;;;;13.98;7.33;;;;;;;5.44;94.41;97701.33;1828909;77;20953;-76
2022/11/18 03:26:00;;;;;;;16.48;7.00;;;;;;;5.46;94.47;97699.55;1785011;78;21465;-77
2022/11/18 03:28:50;;;;;;;19.05;8.35;;;;;;;5.45;94.40;97697.84;1832448;77;20967;-77
2022/11/18 03:31:43;;;;;;;12.88;7.00;;;;;;;5.41;94.59;97691.92;1818921;78;21047;-78
2022/11/18 03:34:35;;;;;;;18.98;7.83;;;;;;;5.40;94.56;97684.25;1800931;78;21010;-77
2022/11/18 03:37:05;;;;;;;17.00;7.50;;;;;;;5.38;94.40;97678.68;1820402;77;20951;-78
2022/11/18 03:39:36;;;;;;;16.07;7.45;;;;;;;5.34;94.36;97673.20;1816276;77;20972;-78
2022/11/18 03:42:33;;;;;;;14.15;7.03;;;;;;;5.36;93.66;97676.59;1812705;78;20995;-79
2022/11/18 03:45:04;;;;;;;16.40;7.25;;;;;;;5.24;94.50;97679.50;1799742;78;22180;-78
2022/11/18 03:47:35;;;;;;;20.60;8.98;;;;;;;5.21;94.36;97691.61;1807610;76;20995;-78
2022/11/18 03:50:13;;;;;;;18.23;8.40;;;;;;;5.11;95.19;97696.15;1799446;77;21031;-78
2022/11/18 03:52:40;;;;;;;22.05;9.10;;;;;;;5.11;94.64;97697.02;1782234;78;21403;-79
2022/11/18 03:55:21;;;;;;;20.62;9.40;;;;;;;5.00;95.92;97699.01;1801473;78;20947;-79
2022/11/18 03:58:10;;;;;;;19.27;8.85;;;;;;;5.01;95.86;97703.26;1811009;76;21002;-77
2022/11/18 04:00:41;;;;;;;20.02;9.48;;;;;;;4.98;95.79;97700.33;1819443;78;21054;-78
2022/11/18 04:03:09;;;;;;;16.00;8.58;;;;;;;4.97;96.18;97696.49;1817422;78;21502;-76
2022/11/18 04:05:41;;;;;;;19.42;7.78;;;;;;;5.05;95.93;97697.59;1832427;78;21030;-79
2022/11/18 04:08:23;;;;;;;20.08;8.80;;;;;;;5.04;95.96;97695.92;1826049;78;21019;-79
2022/11/18 04:10:58;;;;;;;20.57;7.70;;;;;;;5.00;96.63;97692.57;1822916;78;21063;-77
2022/11/18 04:13:30;;;;;;;18.32;7.55;;;;;;;5.05;96.48;97681.69;1805931;78;21035;-80
2022/11/18 04:15:56;;;;;;;19.10;7.92;;;;;;;5.11;96.34;97685.42;1799718;78;21906;-79
2022/11/18 04:18:23;;;;;;;25.65;8.38;;;;;;;5.12;96.11;97683.69;1816549;76;21352;-77
2022/11/18 04:20:50;;;;;;;19.45;8.78;;;;;;;5.13;96.32;97681.50;1804649;78;20963;-77
2022/11/18 04:23:16;;;;;;;19.50;7.75;;;;;;;5.14;96.31;97680.18;1822075;77;21455;-78
2022/11/18 04:25:43;;;;;;;16.37;7.35;;;;;;;5.23;95.97;97689.39;1800464;78;20988;-77
2022/11/18 04:28:10;;;;;;;21.15;7.60;;;;;;;5.21;96.12;97692.90;1803575;78;21105;-79
2022/11/18 04:30:36;;;;;;;17.15;8.25;;;;;;;5.23;95.99;97693.25;1825524;78;21577;-79
2022/11/18 04:33:04;;;;;;;17.67;8.60;;;;;;;5.24;95.87;97687.67;1811922;78;21042;-78
2022/11/18 04:35:30;;;;;;;27.60;9.35;;;;;;;5.30;95.60;97684.48;1814886;78;20979;-80
2022/11/18 04:37:57;;;;;;;32.03;7.95;;;;;;;5.28;95.56;97683.68;1818436;78;21019;-79
2022/11/18 04:40:23;;;;;;;22.15;8.78;;;;;;;5.29;95.24;97674.21;1805932;78;20994;-78
2022/11/18 04:42:50;;;;;;;20.75;9.18;;;;;;;5.28;95.05;97660.94;1822874;78;21577;-78
2022/11/18 04:45:16;;;;;;;23.57;8.68;;;;;;;5.26;95.08;97662.27;1819086;76;21003;-80
2022/11/18 04:47:43;;;;;;;14.20;6.50;;;;;;;5.26;95.07;97654.98;1825724;78;21014;-79
2022/11/18 04:50:09;;;;;;;15.75;7.20;;;;;;;5.27;94.65;97658.81;1768474;78;21043;-79
2022/11/18 04:52:36;;;;;;;17.10;7.65;;;;;;;5.27;94.81;97663.10;1804717;78;21026;-79
2022/11/18 04:55:02;;;;;;;15.50;7.00;;;;;;;5.24;95.13;97656.76;1825060;78;21570;-78
2022/11/18 04:57:29;;;;;;;13.40;6.00;;;;;;;5.32;95.03;97672.41;1803442;78;21843;-79
2022/11/18 04:59:55;;;;;;;13.68;6.55;;;;;;;5.34;95.13;97677.08;1804713;78;20983;-79
2022/11/18 05:02:22;;;;;;;17.15;6.95;;;;;;;5.36;95.37;97677.05;1803172;78;21038;-79
2022/11/18 05:04:48;;;;;;;17.98;6.90;;;;;;;5.44;95.30;97691.02;1827704;78;22209;-79
2022/11/18 05:07:15;;;;;;;13.40;6.50;;;;;;;5.51;95.22;97682.21;1807206;76;21004;-80
2022/11/18 05:09:43;;;;;;;12.43;5.87;;;;;;;5.57;95.05;97684.62;1767755;77;21754;-79
2022/11/18 05:14:59;;;;;;;15.68;6.08;;;;;;;5.66;94.85;97683.53;1830262;76;20951;-78
2022/11/18 05:17:25;;;;;;;11.25;5.90;;;;;;;5.73;94.83;97687.19;1824109;78;20987;-77
2022/11/18 05:19:52;;;;;;;15.85;6.92;;;;;;;5.81;94.57;97688.27;1829132;78;21879;-77
2022/11/18 05:22:18;;;;;;;15.85;6.60;;;;;;;5.77;94.33;97689.25;1805648;78;21011;-78
2022/11/18 05:24:45;;;;;;;14.13;6.28;;;;;;;5.82;94.05;97685.23;1830925;78;20980;-78
2022/11/18 05:27:12;;;;;;;13.65;6.50;;;;;;;5.84;93.77;97691.20;1804249;78;21090;-78
2022/11/18 05:29:39;;;;;;;14.10;5.50;;;;;;;5.86;93.53;97687.67;1823616;78;21015;-78
2022/11/18 05:32:06;;;;;;;20.52;5.53;;;;;;;5.88;93.43;97694.92;1810338;78;21008;-77
2022/11/18 05:34:32;;;;;;;18.95;5.92;;;;;;;5.94;93.40;97696.03;1779956;79;21507;-78
2022/11/18 05:36:59;;;;;;;26.33;7.30;;;;;;;5.93;93.35;97689.20;1766374;78;20986;-77
2022/11/18 05:39:26;;;;;;;14.70;7.22;;;;;;;5.97;93.60;97702.89;1819279;78;21610;-77
2022/11/18 05:44:37;;;;;;;19.10;7.72;;;;;;;6.00;93.19;97714.40;1829351;76;21031;-79
2022/11/18 05:47:04;;;;;;;20.43;8.05;;;;;;;6.00;93.28;97713.56;1813766;78;21007;-79
2022/11/18 05:49:30;;;;;;;18.57;8.05;;;;;;;5.97;93.24;97701.16;1806620;76;21546;-79
2022/11/18 05:51:57;;;;;;;21.20;8.05;;;;;;;5.99;93.09;97697.25;1799952;77;21618;-80
2022/11/18 05:54:23;;;;;;;20.00;7.80;;;;;;;6.00;93.18;97707.95;1808352;78;20983;-78
2022/11/18 05:56:50;;;;;;;22.07;7.37;;;;;;;6.00;93.11;97697.63;1832987;77;21026;-80
2022/11/18 05:59:17;;;;;;;15.45;7.03;;;;;;;6.01;93.12;97703.62;1821364;77;21042;-79
2022/11/18 06:01:58;;;;;;;16.42;6.90;;;;;;;6.04;93.26;97709.55;1787650;79;21035;-79
2022/11/18 06:04:36;;;;;;;13.78;6.62;;;;;;;6.08;93.31;97709.86;1816397;78;21011;-79
2022/11/18 06:07:23;;;;;;;16.95;7.15;;;;;;;6.14;93.25;97717.42;1818239;78;21006;-79
2022/11/18 06:09:54;;;;;;;14.43;5.87;;;;;;;6.16;93.32;97727.25;1782675;78;21031;-80
2022/11/18 06:12:25;;;;;;;16.55;5.50;;;;;;;6.19;93.22;97718.59;1822306;78;21103;-78
2022/11/18 06:14:59;;;;;;;13.55;6.60;;;;;;;6.21;93.05;97709.49;1803357;79;20983;-79
2022/11/18 06:17:30;;;;;;;13.28;6.45;;;;;;;6.26;93.13;97707.17;1805682;79;21059;-79
2022/11/18 06:19:58;;;;;;;17.20;5.85;;;;;;;6.32;92.97;97710.03;1809387;79;20995;-79
2022/11/18 06:22:25;;;;;;;20.85;6.85;;;;;;;6.42;93.42;97697.69;1808591;78;21063;-78
2022/11/18 06:24:52;;;;;;;20.97;7.10;;;;;;;6.44;93.06;97707.06;1792031;78;20987;-79
2022/11/18 06:27:19;;;;;;;17.42;6.65;;;;;;;6.46;92.73;97709.61;1811268;78;21015;-77
2022/11/18 06:29:45;;;;;;;16.02;7.10;;;;;;;6.54;93.31;97711.05;1825793;78;21126;-78
2022/11/18 06:32:12;;;;;;;12.63;6.10;;;;;;;6.55;92.71;97712.75;1799543;78;21609;-82
2022/11/18 06:34:38;;;;;;;15.40;6.65;;;;;;;6.61;92.49;97712.18;1778203;78;21053;-77
2022/11/18 06:37:16;;;;;;;17.10;7.08;;;;;;;6.59;92.36;97710.92;1794073;78;21030;-78
2022/11/18 06:39:43;;;;;;;12.18;6.45;;;;;;;6.59;92.10;97707.06;1798065;77;20988;-79
2022/11/18 06:42:10;;;;;;;16.25;7.17;;;;;;;6.61;91.98;97712.18;1790836;78;21587;-78
2022/11/18 06:44:37;;;;;;;13.70;7.00;;;;;;;6.61;91.98;97719.92;1820189;78;21083;-79
2022/11/18 06:47:04;;;;;;;12.05;6.65;;;;;;;6.61;91.74;97718.64;1804354;78;20991;-79
2022/11/18 06:49:30;;;;;;;20.77;7.95;;;;;;;6.64;91.78;97720.66;1820621;78;20980;-77
2022/11/18 06:51:57;;;;;;;17.95;7.92;;;;;;;6.71;91.93;97714.87;1798802;79;21059;-77
2022/11/18 06:54:23;;;;;;;14.83;6.97;;;;;;;6.80;91.79;97715.84;1793024;79;21049;-78
2022/11/18 06:56:50;;;;;;;13.28;6.10;;;;;;;6.88;91.67;97716.89;1801132;79;20995;-77
2022/11/18 06:59:22;;;;;;;21.65;7.58;;;;;;;6.95;91.58;97717.11;1814084;78;21156;-78
2022/11/18 07:01:45;;;;;;;12.45;6.70;;;;;;;7.03;91.85;97723.32;1799752;78;21022;-79
2022/11/18 07:04:11;;;;;;;13.50;6.12;;;;;;;7.12;92.00;97710.08;1798887;79;21042;-79
2022/11/18 07:06:38;;;;;;;15.70;5.83;;;;;;;7.23;91.91;97707.98;1790469;78;21027;-80
2022/11/18 07:09:06;;;;;;;13.53;6.42;;;;;;;7.24;91.95;97699.35;1788489;79;21531;-80
2022/11/18 07:11:33;;;;;;;12.20;5.85;;;;;;;7.39;91.62;97704.89;1812380;78;21015;-80
2022/11/18 07:14:00;;;;;;;9.88;5.22;;;;;;;7.47;91.10;97710.63;1798970;79;21016;-79
2022/11/18 07:16:27;;;;;;;12.10;5.65;;;;;;;7.56;90.85;97714.20;1790195;78;21014;-79
2022/11/18 07:18:55;;;;;;;12.82;6.10;;;;;;;7.57;90.05;97724.93;1810283;79;21008;-79
2022/11/18 07:21:27;;;;;;;11.25;6.28;;;;;;;7.63;89.61;97713.07;1798852;77;20995;-79
2022/11/18 07:23:55;;;;;;;13.83;6.50;;;;;;;7.67;88.92;97715.94;1807797;78;21023;-78
2022/11/18 07:26:22;;;;;;;18.48;6.53;;;;;;;7.71;88.89;97706.34;1811683;78;21118;-80
2022/11/18 07:28:49;;;;;;;13.98;6.03;;;;;;;7.77;89.20;97699.65;1811702;79;21515;-78
2022/11/18 07:31:20;;;;;;;15.28;6.35;;;;;;;7.79;87.67;97694.42;1782602;79;21131;-79
2022/11/18 07:33:48;;;;;;;12.47;6.45;;;;;;;7.80;87.51;97693.08;1795453;78;20972;-79
2022/11/18 07:36:19;;;;;;;12.73;6.50;;;;;;;7.84;88.12;97688.61;1804058;77;22258;-79
2022/11/18 07:38:46;;;;;;;11.22;6.10;;;;;;;7.88;88.60;97682.45;1798512;78;21008;-78
2022/11/18 07:41:17;;;;;;;13.70;6.03;;;;;;;7.89;87.66;97685.42;1782787;79;21060;-80
2022/11/18 07:43:45;;;;;;;10.38;5.20;;;;;;;7.89;87.00;97688.02;1794466;79;21000;-79
2022/11/18 07:46:22;;;;;;;12.15;6.17;;;;;;;7.89;86.53;97679.78;1803097;78;20957;-79
2022/11/18 07:48:51;;;;;;;10.65;5.22;;;;;;;7.92;87.27;97676.27;1797590;79;21634;-79
2022/11/18 07:51:22;;;;;;;11.45;5.83;;;;;;;7.90;85.83;97673.73;1790236;78;20972;-80
2022/11/18 07:53:48;;;;;;;16.40;5.53;;;;;;;7.96;85.99;97679.13;1781441;79;21516;-79
2022/11/18 07:56:16;;;;;;;11.78;5.30;;;;;;;8.01;86.59;97673.31;1799270;77;20926;-80
2022/11/18 07:58:43;;;;;;;11.57;5.40;;;;;;;8.04;85.93;97669.33;1799785;79;20976;-79
2022/11/18 08:01:17;;;;;;;10.90;5.90;;;;;;;8.09;85.01;97669.98;1790150;77;20965;-79
2022/11/18 08:03:45;;;;;;;17.55;6.30;;;;;;;8.20;86.50;97682.97;1797769;79;21012;-80
2022/11/18 08:06:16;;;;;;;15.68;6.72;;;;;;;8.24;85.78;97676.80;1786515;78;21004;-79
2022/11/18 08:08:44;;;;;;;16.95;6.78;;;;;;;8.28;85.36;97677.08;1782449;79;21052;-80
2022/11/18 08:11:14;;;;;;;17.92;7.15;;;;;;;8.35;85.81;97674.62;1800632;79;20984;-79
2022/11/18 08:13:41;;;;;;;15.65;7.70;;;;;;;8.39;84.32;97676.64;1781894;79;21027;-80
2022/11/18 08:16:17;;;;;;;19.05;7.85;;;;;;;8.46;86.25;97673.80;1786391;79;20988;-79
2022/11/18 08:18:43;;;;;;;13.53;6.87;;;;;;;8.54;85.33;97669.15;1793134;78;21023;-78
2022/11/18 08:21:11;;;;;;;17.17;6.28;;;;;;;8.59;83.89;97670.71;1802031;77;20972;-79
2022/11/18 08:23:38;;;;;;;10.53;4.92;;;;;;;8.65;83.81;97672.59;1790888;78;21004;-80
2022/11/18 08:26:14;;;;;;;11.00;4.83;;;;;;;8.72;84.22;97668.03;1803784;79;21036;-80
2022/11/18 08:28:42;;;;;;;9.88;5.62;;;;;;;8.74;83.51;97667.05;1813414;77;20973;-79
2022/11/18 08:31:23;;;;;;;9.08;4.75;;;;;;;8.74;83.67;97657.98;1814340;78;21125;-79
2022/11/18 08:33:58;;;;;;;14.50;5.35;;;;;;;8.76;84.17;97661.81;1807720;77;20963;-80
2022/11/18 08:36:29;;;;;;;11.22;4.85;;;;;;;8.78;84.12;97656.12;1812961;78;20984;-80
2022/11/18 08:38:57;;;;;;;10.28;5.10;;;;;;;8.82;84.10;97649.90;1826875;77;20971;-80
2022/11/18 08:41:35;;;;;;;13.85;6.10;;;;;;;8.86;83.45;97651.45;1806807;77;20971;-79
2022/11/18 08:44:03;;;;;;;11.88;6.60;;;;;;;8.92;82.76;97646.48;1806276;77;21039;-80
2022/11/18 08:46:30;;;;;;;12.18;5.47;;;;;;;9.02;83.66;97643.05;1826290;78;20964;-80
2022/11/18 08:48:57;;;;;;;12.70;5.62;;;;;;;9.12;83.90;97643.89;1802479;78;21000;-80
2022/11/18 08:51:24;;;;;;;11.25;5.70;;;;;;;9.19;83.74;97639.30;1806495;78;21031;-79
2022/11/18 08:53:51;;;;;;;12.37;6.00;;;;;;;9.19;82.61;97645.78;1814483;78;20964;-80
2022/11/18 08:56:20;;;;;;;12.50;6.37;;;;;;;9.21;82.36;97643.09;1828690;77;20948;-80
2022/11/18 08:58:47;;;;;;;11.15;5.62;;;;;;;9.23;81.67;97649.93;1806997;78;21066;-79
2022/11/18 09:01:13;;;;;;;10.00;4.83;;;;;;;9.25;82.08;97641.62;1792764;78;21292;-80
2022/11/18 09:03:40;;;;;;;8.38;4.15;;;;;;;9.28;80.65;97638.89;1806408;78;21511;-79
2022/11/18 09:06:13;;;;;;;11.73;4.72;;;;;;;9.35;80.73;97636.86;1829571;78;21050;-80
2022/11/18 09:08:41;;;;;;;11.40;4.72;;;;;;;9.36;81.52;97626.42;1816057;78;21003;-79
2022/11/18 09:11:11;;;;;;;11.08;4.50;;;;;;;9.48;82.21;97632.00;1788472;79;22147;-80
2022/11/18 09:13:38;;;;;;;11.68;4.75;;;;;;;9.53;80.44;97635.24;1790391;79;21006;-80
2022/11/18 09:16:07;;;;;;;9.63;5.25;;;;;;;9.58;81.90;97622.05;1818946;78;21054;-80
2022/11/18 09:18:34;;;;;;;9.85;5.58;;;;;;;9.68;82.10;97617.67;1815750;78;21011;-80
2022/11/18 09:21:06;;;;;;;11.30;5.83;;;;;;;9.69;82.01;97619.37;1817296;78;20995;-80
2022/11/18 09:23:34;;;;;;;15.95;5.65;;;;;;;9.77;82.38;97622.92;1808755;78;21590;-79
2022/11/18 09:26:08;;;;;;;12.10;5.83;;;;;;;9.82;81.73;97630.02;1814867;77;20952;-80
2022/11/18 09:28:37;;;;;;;14.80;5.65;;;;;;;9.82;79.89;97629.19;1766365;80;21470;-81
2022/11/18 09:31:07;;;;;;;15.43;6.70;;;;;;;9.87;81.47;97622.05;1774532;79;21096;-79
2022/11/18 09:33:36;;;;;;;15.60;6.60;;;;;;;9.87;81.33;97616.86;1784039;79;21084;-79
2022/11/18 09:36:05;;;;;;;13.08;6.50;;;;;;;9.90;82.03;97615.41;1791850;78;21084;-79
2022/11/18 09:38:31;;;;;;;16.77;7.25;;;;;;;9.94;81.18;97622.13;1782545;79;21039;-79
2022/11/18 09:41:06;;;;;;;25.08;9.13;;;;;;;9.96;80.73;97619.02;1793903;79;21080;-79
2022/11/18 09:43:44;;;;;;;14.43;7.17;;;;;;;9.98;81.28;97626.27;1766550;79;21044;-80
2022/11/18 09:46:43;;;;;;;19.10;7.65;;;;;;;10.03;81.19;97624.78;1793613;78;21119;-79
2022/11/18 09:49:15;;;;;;;18.75;7.75;;;;;;;10.05;81.60;97616.00;1804137;78;21004;-80
2022/11/18 09:51:48;;;;;;;14.15;7.33;;;;;;;10.03;81.31;97598.35;1752980;80;21000;-80
2022/11/18 09:54:26;;;;;;;12.40;6.87;;;;;;;10.07;81.61;97597.30;1784785;79;21562;-79
2022/11/18 09:56:54;;;;;;;11.57;6.28;;;;;;;10.12;81.28;97597.90;1784717;78;21016;-79
2022/11/18 09:59:29;;;;;;;16.40;6.28;;;;;;;10.11;81.61;97591.04;1808002;77;21079;-80
2022/11/18 10:02:01;;;;;;;11.45;6.47;;;;;;;10.10;80.98;97592.41;1800830;77;21008;-79
2022/11/18 10:04:28;;;;;;;10.93;6.30;;;;;;;10.05;81.38;97580.95;1803146;79;21035;-79
2022/11/18 10:06:55;;;;;;;14.90;6.50;;;;;;;10.02;81.78;97573.29;1786839;77;21068;-79
2022/11/18 10:09:32;;;;;;;13.00;7.03;;;;;;;10.03;82.60;97567.66;1803432;77;21075;-79
2022/11/18 10:12:38;;;;;;;15.45;6.95;;;;;;;10.05;83.28;97567.97;1790047;79;21040;-79
2022/11/18 10:15:17;;;;;;;16.90;8.93;;;;;;;10.11;83.85;97571.56;1780736;78;21019;-80
2022/11/18 10:18:16;;;;;;;19.23;11.70;;;;;;;10.13;83.74;97571.03;1758846;79;21055;-79
2022/11/18 10:21:20;;;;;;;16.17;8.60;;;;;;;10.09;83.99;97564.77;1748456;80;21006;-79
2022/11/18 10:24:12;;;;;;;12.28;6.62;;;;;;;10.10;84.33;97562.08;1795222;79;21008;-79
2022/11/18 10:26:41;;;;;;;15.40;8.40;;;;;;;10.07;84.22;97568.73;1784857;79;21024;-79
2022/11/18 10:29:09;;;;;;;16.25;6.62;;;;;;;10.06;84.67;97572.69;1810309;78;20992;-79
2022/11/18 10:31:41;;;;;;;13.15;6.72;;;;;;;10.06;84.57;97574.83;1818923;78;21902;-79
2022/11/18 10:34:11;;;;;;;14.78;6.78;;;;;;;10.02;84.64;97571.16;1811997;78;21067;-79
2022/11/18 10:36:39;;;;;;;17.48;5.50;;;;;;;9.94;84.38;97576.23;1794432;77;20964;-79
2022/11/18 10:39:15;;;;;;;9.55;5.22;;;;;;;9.85;83.82;97577.16;1811416;77;21265;-78
2022/11/18 10:41:50;;;;;;;12.33;5.33;;;;;;;9.86;84.09;97572.33;1813888;77;21571;-77
2022/11/18 10:44:39;;;;;;;12.63;5.60;;;;;;;9.71;83.99;97579.09;1806772;77;20972;-78
2022/11/18 10:47:26;;;;;;;12.10;5.90;;;;;;;9.64;84.62;97570.72;1782219;78;21065;-80
2022/11/18 10:50:02;;;;;;;12.45;5.10;;;;;;;9.64;84.93;97565.98;1798310;78;21014;-78
2022/11/18 10:52:29;;;;;;;11.78;5.40;;;;;;;9.63;85.12;97567.75;1786192;79;21070;-79
2022/11/18 10:55:26;;;;;;;12.15;5.60;;;;;;;9.61;85.44;97566.98;1782897;80;21284;-79
2022/11/18 10:58:14;;;;;;;12.00;5.70;;;;;;;9.62;85.66;97571.24;1799897;78;21032;-79
2022/11/18 11:00:45;;;;;;;11.10;4.92;;;;;;;9.62;86.12;97563.92;1811517;77;21007;-79
2022/11/18 11:03:32;;;;;;;13.83;5.12;;;;;;;9.63;85.57;97560.41;1803267;77;21053;-79
2022/11/18 11:06:28;;;;;;;11.38;5.17;;;;;;;9.64;86.48;97553.85;1795286;78;21003;-77
2022/11/18 11:09:15;;;;;;;13.08;4.50;;;;;;;9.70;87.74;97544.95;1807203;78;21087;-79
2022/11/18 11:11:58;;;;;;;9.70;5.03;;;;;;;9.79;87.64;97541.07;1817765;77;21506;-79
2022/11/18 11:14:51;;;;;;;16.95;5.33;;;;;;;9.86;87.57;97536.82;1815135;77;21015;-78
2022/11/18 11:17:29;;;;;;;12.37;5.30;;;;;;;9.94;87.67;97530.81;1814676;78;20999;-80
2022/11/18 11:20:21;;;;;;;13.45;5.42;;;;;;;10.05;88.09;97530.78;1818411;77;21526;-79
2022/11/18 11:22:48;;;;;;;15.53;5.92;;;;;;;10.17;88.32;97528.89;1804626;78;20986;-80
2022/11/18 11:25:32;;;;;;;14.90;6.10;;;;;;;10.25;88.37;97520.73;1784367;79;21011;-79
2022/11/18 11:28:29;;;;;;;23.02;5.97;;;;;;;10.33;88.37;97515.56;1796865;78;21540;-79
2022/11/18 11:31:37;;;;;;;15.32;5.22;;;;;;;10.39;88.49;97505.80;1764940;79;21070;-79
2022/11/18 11:34:40;;;;;;;14.18;6.08;;;;;;;10.49;88.25;97509.14;1797195;77;21015;-80
2022/11/18 11:37:36;;;;;;;21.90;6.25;;;;;;;10.55;87.48;97488.52;1797477;79;21015;-79
2022/11/18 11:40:11;;;;;;;8.85;5.00;;;;;;;10.58;87.37;97481.01;1823834;78;21074;-80
2022/11/18 11:43:06;;;;;;;21.40;6.37;;;;;;;10.65;86.87;97487.13;1806057;77;21558;-79
2022/11/18 11:45:57;;;;;;;10.58;5.97;;;;;;;10.71;86.94;97479.47;1811712;78;20972;-79
2022/11/18 11:48:38;;;;;;;10.60;5.55;;;;;;;10.72;86.00;97488.94;1813443;78;21046;-80
2022/11/18 11:51:32;;;;;;;13.08;5.40;;;;;;;10.70;86.15;97484.27;1802363;78;21034;-79
2022/11/18 11:54:47;;;;;;;12.55;5.12;;;;;;;10.70;85.93;97476.48;1788835;78;20995;-79
2022/11/18 11:57:54;;;;;;;16.50;5.85;;;;;;;10.64;85.57;97482.83;1769639;79;21046;-79
2022/11/18 12:00:21;;;;;;;14.13;6.50;;;;;;;10.58;84.90;97474.05;1813504;78;21550;-79
2022/11/18 12:03:20;;;;;;;17.67;8.70;;;;;;;10.53;85.54;97475.59;1820112;77;20979;-80
2022/11/18 12:05:47;;;;;;;16.37;6.35;;;;;;;10.51;85.77;97473.53;1818227;77;21023;-79
2022/11/18 12:08:23;;;;;;;11.22;6.30;;;;;;;10.47;85.79;97469.41;1812465;77;21022;-79
2022/11/18 12:11:13;;;;;;;12.75;7.17;;;;;;;10.46;86.06;97471.61;1817530;77;21158;-80
2022/11/18 12:14:01;;;;;;;13.93;6.25;;;;;;;10.46;86.02;97464.28;1816074;77;21852;-79